JFA05B LOWS-LDPL

Flight info

Callsign JFA05B
Flight time 0h 39m
Altitude 27000
Route VERDA DCT GIRDA
Aircraft PC24/M-SBDGIRWY/LB2

Departure

Time 2026-05-01 08:05
Airport Salzburg Airport (LOWS)

Arrival

Time 2026-05-01 08:45
Airport Pula Airport (LDPL)
Time Latitude Longitude Altitude Speed Heading
2026-05-01 07:28 47.79734 12.99773 1416 ft 0 kts 67°
2026-05-01 07:30 47.79730 12.99758 1416 ft 0 kts 67°
2026-05-01 08:00 47.79722 12.99741 1419 ft 4 kts 337°
2026-05-01 08:01 47.79823 12.99817 1416 ft 12 kts 343°
2026-05-01 08:01 47.79899 12.99767 1416 ft 13 kts 341°
2026-05-01 08:01 47.79987 12.99717 1418 ft 14 kts 337°
2026-05-01 08:02 47.80194 12.99591 1416 ft 18 kts 350°
2026-05-01 08:02 47.80246 12.99606 1419 ft 0 kts 37°
2026-05-01 08:03 47.80275 12.99715 1416 ft 17 kts 78°
2026-05-01 08:04 47.80205 12.99842 1416 ft 16 kts 158°
2026-05-01 08:04 47.78975 13.00653 1782 ft 160 kts 155°
2026-05-01 08:05 47.76943 13.02868 4271 ft 187 kts 137°
2026-05-01 08:05 47.75902 13.04024 5576 ft 198 kts 145°
2026-05-01 08:05 47.74660 13.05067 6676 ft 207 kts 150°
2026-05-01 08:06 47.72103 13.07277 9006 ft 218 kts 144°
2026-05-01 08:06 47.69463 13.09685 11153 ft 232 kts 153°
2026-05-01 08:07 47.66458 13.11657 13285 ft 240 kts 148°
2026-05-01 08:07 47.63405 13.13870 15355 ft 248 kts 147°
2026-05-01 08:08 47.61884 13.15073 16399 ft 246 kts 137°
2026-05-01 08:08 47.59638 13.18715 18493 ft 238 kts 114°
2026-05-01 08:09 47.57830 13.22921 20282 ft 247 kts 115°
2026-05-01 08:09 47.56660 13.24874 21108 ft 265 kts 134°
2026-05-01 08:09 47.54956 13.26137 21976 ft 284 kts 153°
2026-05-01 08:10 47.51097 13.27832 23604 ft 297 kts 155°
2026-05-01 08:10 47.47066 13.29581 24948 ft 306 kts 155°
2026-05-01 08:11 47.42919 13.31395 26318 ft 315 kts 155°
2026-05-01 08:11 47.38633 13.33263 27345 ft 333 kts 155°
2026-05-01 08:12 47.33888 13.35342 27394 ft 379 kts 156°
2026-05-01 08:12 47.31274 13.36466 27392 ft 400 kts 157°
2026-05-01 08:12 47.25707 13.38874 27397 ft 431 kts 157°
2026-05-01 08:13 47.22810 13.40126 27393 ft 435 kts 157°
2026-05-01 08:13 47.19889 13.41379 27377 ft 438 kts 157°
2026-05-01 08:13 47.14036 13.43908 27375 ft 439 kts 157°
2026-05-01 08:14 47.11106 13.45169 27384 ft 438 kts 157°
2026-05-01 08:14 47.08171 13.46431 27381 ft 440 kts 157°
2026-05-01 08:14 47.05285 13.47670 27389 ft 438 kts 157°
2026-05-01 08:14 47.02354 13.48927 27375 ft 438 kts 157°
2026-05-01 08:15 46.99441 13.50175 27381 ft 438 kts 157°
2026-05-01 08:15 46.93591 13.52683 27390 ft 437 kts 157°
2026-05-01 08:15 46.90662 13.53933 27396 ft 440 kts 157°
2026-05-01 08:16 46.87730 13.55182 27391 ft 438 kts 156°
2026-05-01 08:16 46.84810 13.56426 27398 ft 437 kts 156°
2026-05-01 08:16 46.81890 13.57672 27386 ft 437 kts 156°
2026-05-01 08:16 46.78972 13.58913 27381 ft 435 kts 156°
2026-05-01 08:17 46.76063 13.60148 27386 ft 436 kts 156°
2026-05-01 08:17 46.73191 13.61359 27376 ft 426 kts 156°
2026-05-01 08:17 46.70310 13.62590 27402 ft 433 kts 156°
2026-05-01 08:17 46.67415 13.63821 27409 ft 435 kts 156°
2026-05-01 08:18 46.64498 13.65051 27401 ft 437 kts 156°
2026-05-01 08:18 46.58659 13.67510 27386 ft 435 kts 155°
2026-05-01 08:19 46.52817 13.69976 27405 ft 437 kts 156°
2026-05-01 08:19 46.49902 13.71196 27402 ft 436 kts 156°
2026-05-01 08:19 46.46986 13.72424 27397 ft 437 kts 156°
2026-05-01 08:19 46.44093 13.73643 27403 ft 438 kts 156°
2026-05-01 08:20 46.41163 13.74868 27405 ft 439 kts 156°
2026-05-01 08:20 46.38235 13.76094 27399 ft 439 kts 155°
2026-05-01 08:20 46.35310 13.77313 27387 ft 437 kts 156°
2026-05-01 08:20 46.33369 13.78121 27394 ft 436 kts 155°
2026-05-01 08:21 46.31645 13.78843 27389 ft 437 kts 155°
2026-05-01 08:21 46.28726 13.80068 27393 ft 437 kts 155°
2026-05-01 08:21 46.25804 13.81285 27383 ft 438 kts 155°
2026-05-01 08:21 46.22869 13.82502 27383 ft 437 kts 156°
2026-05-01 08:22 46.19952 13.83714 27381 ft 437 kts 155°
2026-05-01 08:22 46.17035 13.84929 27380 ft 436 kts 155°
2026-05-01 08:22 46.14124 13.86137 27382 ft 436 kts 155°
2026-05-01 08:22 46.11208 13.87342 27375 ft 435 kts 155°
2026-05-01 08:23 46.08286 13.88555 26880 ft 434 kts 155°
2026-05-01 08:23 46.05403 13.89739 26374 ft 427 kts 155°
2026-05-01 08:23 46.02564 13.90909 25850 ft 423 kts 155°
2026-05-01 08:23 45.99736 13.92086 25227 ft 422 kts 155°
2026-05-01 08:24 45.97674 13.92939 24701 ft 419 kts 155°
2026-05-01 08:24 45.94906 13.94066 23998 ft 406 kts 155°
2026-05-01 08:24 45.92235 13.95155 23184 ft 393 kts 155°
2026-05-01 08:24 45.89640 13.96231 22366 ft 384 kts 155°
2026-05-01 08:25 45.87095 13.97287 21702 ft 376 kts 155°
2026-05-01 08:25 45.84530 13.98348 21207 ft 390 kts 155°
2026-05-01 08:25 45.81934 13.99410 20700 ft 389 kts 156°
2026-05-01 08:25 45.79327 14.00465 20179 ft 389 kts 156°
2026-05-01 08:26 45.76725 14.01529 19675 ft 386 kts 156°
2026-05-01 08:26 45.74183 14.02572 19174 ft 384 kts 157°
2026-05-01 08:26 45.71618 14.03621 18680 ft 382 kts 157°
2026-05-01 08:26 45.69116 14.04639 18159 ft 380 kts 157°
2026-05-01 08:27 45.66590 14.05665 17668 ft 377 kts 158°
2026-05-01 08:27 45.64044 14.06570 17147 ft 380 kts 166°
2026-05-01 08:27 45.61377 14.06406 16664 ft 388 kts 187°
2026-05-01 08:27 45.58857 14.05058 16400 ft 391 kts 207°
2026-05-01 08:28 45.56571 14.02971 16150 ft 389 kts 212°
2026-05-01 08:28 45.54323 14.00812 15907 ft 389 kts 213°
2026-05-01 08:28 45.52114 13.98661 15669 ft 388 kts 213°
2026-05-01 08:28 45.49875 13.96525 15423 ft 387 kts 212°
2026-05-01 08:29 45.47672 13.94444 15168 ft 369 kts 212°
2026-05-01 08:29 45.45598 13.92473 14912 ft 350 kts 212°
2026-05-01 08:29 45.43603 13.90574 14657 ft 342 kts 212°
2026-05-01 08:29 45.41630 13.88701 14415 ft 340 kts 212°
2026-05-01 08:30 45.39667 13.86841 14167 ft 338 kts 212°
2026-05-01 08:30 45.37707 13.84983 13900 ft 340 kts 212°
2026-05-01 08:30 45.35743 13.83125 13628 ft 337 kts 213°
2026-05-01 08:30 45.33798 13.81284 13363 ft 334 kts 212°
2026-05-01 08:31 45.31871 13.79461 13099 ft 332 kts 212°
2026-05-01 08:31 45.29956 13.77653 12838 ft 330 kts 212°
2026-05-01 08:31 45.28048 13.75851 12570 ft 328 kts 212°
2026-05-01 08:31 45.26150 13.74062 12310 ft 326 kts 212°
2026-05-01 08:32 45.24263 13.72288 12054 ft 325 kts 212°
2026-05-01 08:32 45.22381 13.70515 11798 ft 324 kts 212°
2026-05-01 08:32 45.20506 13.68744 11545 ft 323 kts 212°
2026-05-01 08:32 45.18636 13.66991 11291 ft 321 kts 212°
2026-05-01 08:33 45.16805 13.65277 11043 ft 319 kts 212°
2026-05-01 08:33 45.14960 13.63544 10795 ft 318 kts 212°
2026-05-01 08:33 45.13123 13.61818 10538 ft 316 kts 212°
2026-05-01 08:33 45.11302 13.60111 10299 ft 314 kts 212°
2026-05-01 08:34 45.09480 13.58407 10040 ft 313 kts 212°
2026-05-01 08:34 45.07668 13.56712 9771 ft 311 kts 212°
2026-05-01 08:34 45.05873 13.55034 9504 ft 308 kts 212°
2026-05-01 08:34 45.04084 13.53362 9242 ft 306 kts 212°
2026-05-01 08:35 45.02311 13.51709 8978 ft 304 kts 212°
2026-05-01 08:35 45.00446 13.50359 8708 ft 300 kts 197°
2026-05-01 08:35 44.98482 13.49729 8452 ft 296 kts 183°
2026-05-01 08:35 44.96446 13.49725 8196 ft 291 kts 174°
2026-05-01 08:36 44.94423 13.49837 7945 ft 291 kts 174°
2026-05-01 08:36 44.92405 13.49936 7637 ft 284 kts 174°
2026-05-01 08:36 44.90492 13.50030 7273 ft 267 kts 174°
2026-05-01 08:36 44.88675 13.50129 6840 ft 256 kts 174°
2026-05-01 08:37 44.86963 13.50453 6367 ft 241 kts 153°
2026-05-01 08:37 44.85780 13.51941 5900 ft 223 kts 113°
2026-05-01 08:37 44.85600 13.53988 5454 ft 209 kts 74°
2026-05-01 08:37 44.86350 13.55680 5030 ft 203 kts 51°
2026-05-01 08:38 44.87213 13.57192 4606 ft 198 kts 56°
2026-05-01 08:38 44.87925 13.58839 4181 ft 195 kts 63°
2026-05-01 08:38 44.88418 13.60599 3738 ft 193 kts 79°
2026-05-01 08:38 44.88472 13.62477 3328 ft 190 kts 88°
2026-05-01 08:39 44.88519 13.64334 2961 ft 187 kts 85°
2026-05-01 08:39 44.88599 13.66149 2610 ft 184 kts 84°
2026-05-01 08:39 44.88654 13.67321 2523 ft 176 kts 85°
2026-05-01 08:39 44.88754 13.69507 2509 ft 167 kts 85°
2026-05-01 08:40 44.88894 13.72650 2506 ft 146 kts 84°
2026-05-01 08:40 44.88945 13.74018 2463 ft 138 kts 86°
2026-05-01 08:40 44.88962 13.74913 2350 ft 130 kts 85°
2026-05-01 08:41 44.88995 13.76190 2193 ft 129 kts 85°
2026-05-01 08:41 44.89024 13.77440 2025 ft 127 kts 84°
2026-05-01 08:41 44.89052 13.78673 1860 ft 126 kts 85°
2026-05-01 08:41 44.89082 13.79903 1728 ft 127 kts 84°
2026-05-01 08:42 44.89108 13.81121 1520 ft 121 kts 83°
2026-05-01 08:42 44.89138 13.82325 1375 ft 125 kts 85°
2026-05-01 08:42 44.89159 13.83476 1226 ft 110 kts 85°
2026-05-01 08:42 44.89185 13.84503 1029 ft 98 kts 82°
2026-05-01 08:43 44.89204 13.85451 751 ft 94 kts 85°
2026-05-01 08:43 44.89233 13.86409 740 ft 99 kts 82°
2026-05-01 08:43 44.89237 13.87429 666 ft 106 kts 84°
2026-05-01 08:43 44.89257 13.88423 565 ft 97 kts 82°
2026-05-01 08:44 44.89302 13.89375 463 ft 95 kts 84°
2026-05-01 08:44 44.89310 13.90276 285 ft 93 kts 83°
2026-05-01 08:44 44.89335 13.91194 242 ft 87 kts 82°
2026-05-01 08:44 44.89365 13.91923 223 ft 61 kts 92°
2026-05-01 08:45 44.89355 13.92308 218 ft 22 kts 98°
2026-05-01 08:45 44.89360 13.92501 215 ft 20 kts 84°
2026-05-01 08:45 44.89366 13.92688 215 ft 17 kts 88°
2026-05-01 08:45 44.89376 13.92834 218 ft 13 kts 64°
2026-05-01 08:46 44.89448 13.92871 218 ft 11 kts
2026-05-01 08:46 44.89522 13.92868 218 ft 10 kts 354°
2026-05-01 08:46 44.89575 13.92830 220 ft 10 kts 308°
2026-05-01 08:46 44.89584 13.92713 220 ft 16 kts 269°
2026-05-01 08:47 44.89582 13.92530 222 ft 19 kts 269°
2026-05-01 08:47 44.89628 13.92460 222 ft 9 kts
2026-05-01 08:47 44.89691 13.92459 222 ft 9 kts
2026-05-01 08:47 44.89750 13.92459 222 ft 9 kts 356°
2026-05-01 08:48 44.89793 13.92401 222 ft 10 kts 297°
2026-05-01 08:48 44.89823 13.92400 222 ft 2 kts 62°
2026-05-01 08:48 44.89825 13.92407 222 ft 0 kts 73°